Delta Pioneer — SYIO — position and weather

sailwx.info

Track history (hours):
 
Tides and Currents Weather Stations Pressure Air Temp Water Temp Dewpoint Dewpoint Depression Visibility Wind Speed Wind Dir Waves Ship Positions

Delta Pioneer

Last reported at 2014-Nov-28 00:33 UTC. Time now 2014-Nov-28 01:24 UTC.
Position N 59°56' E 026°16'.

Length 249 m; draft 6.8 m.

Type: Tanker. MMSI: 240244000.

Date/timePositionNaut miles runAvg speedWind from/ knotsBaromVisibWave heightAir tempDewpointWater temp
2014-Nov-28 00:33N 59°56' E 026°16'44 2.6
2014-Nov-27 07:33N 59°46' E 024°51'5 5.4
2014-Nov-27 06:33N 59°45' E 024°40'5 5.4
2014-Nov-27 05:33N 59°44' E 024°30'5 5.4
2014-Nov-27 04:34N 59°43' E 024°19'5 5.2
2014-Nov-27 03:33N 59°41' E 024°09'5 5.3
2014-Nov-27 02:33N 59°40' E 023°59'5 5.4
2014-Nov-27 01:33N 59°38' E 023°49'6 5.6
2014-Nov-27 00:33N 59°36' E 023°39'6 5.6
2014-Nov-26 23:31N 59°35' E 023°27'  
2014-Nov-24 05:33N 55°37' E 015°34'6 6.4
2014-Nov-24 04:33N 55°35' E 015°23'7 6.8
2014-Nov-24 03:32N 55°32' E 015°12'7 6.9
2014-Nov-24 02:32N 55°29' E 015°01'7 7.1
2014-Nov-24 01:33N 55°27' E 014°50'8 7.7
2014-Nov-24 00:33N 55°23' E 014°38'8 8.4
2014-Nov-23 23:34N 55°16' E 014°29'8 7.9
2014-Nov-23 22:33N 55°10' E 014°19'8 8.1
2014-Nov-23 21:33N 55°10' E 014°05'34 6.3
2014-Nov-23 16:12N 55°13' E 013°06'4 6.2
2014-Nov-23 15:33N 55°13' E 012°59'6 5.8
2014-Nov-23 14:33N 55°15' E 012°50'6 5.5
2014-Nov-23 13:33N 55°17' E 012°41'5 4.6
2014-Nov-23 12:33N 55°22' E 012°38'6 6.0
2014-Nov-23 11:33N 55°28' E 012°41'7 7.1
2014-Nov-23 10:33N 55°33' E 012°48'8 8.1
2014-Nov-23 09:34N 55°40' E 012°56'1110.9
2014-Nov-23 08:33N 55°50' E 012°46'1211.6
2014-Nov-23 07:33N 56°01' E 012°40'9 8.7
2014-Nov-23 06:33N 56°08' E 012°30'5 5.2
2014-Nov-23 05:33N 56°10' E 012°23'6 5.8
2014-Nov-23 04:33N 56°13' E 012°14'5 5.3
2014-Nov-23 03:33N 56°16' E 012°06'5 5.5
2014-Nov-23 02:33N 56°21' E 012°01'57 6.2
2014-Nov-22 17:25N 57°16' E 011°32'5 4.6
2014-Nov-22 16:22N 57°20' E 011°29'3 4.0
2014-Nov-22 15:33N 57°23' E 011°27'7 7.3
2014-Nov-22 14:33N 57°29' E 011°20'8 7.6
2014-Nov-22 13:33N 57°35' E 011°09'7 7.1
2014-Nov-22 12:33N 57°39' E 010°60'7 7.2
2014-Nov-22 11:32N 57°44' E 010°50'6 6.1
2014-Nov-22 10:33N 57°47' E 010°40'7 6.5
2014-Nov-22 09:27N 57°48' E 010°27'272 6.5
2014-Nov-20 15:30N 54°19' E 005°15'8 8.6
2014-Nov-20 14:33N 54°14' E 005°03'8 8.3
2014-Nov-20 13:33N 54°08' E 004°54'8 8.1
2014-Nov-20 12:33N 54°01' E 004°45'  
Track history (hours):
 
Tides and Currents Weather Stations Pressure Air Temp Water Temp Dewpoint Dewpoint Depression Visibility Wind Speed Wind Dir Waves Ship Positions

Delta Pioneer

Last reported at 2014-Nov-28 00:33 UTC. Time now 2014-Nov-28 01:24 UTC.
Position N 59°56' E 026°16'.

Length 249 m; draft 6.8 m.

Type: Tanker. MMSI: 240244000.

Date/timePositionNaut miles runAvg speedWind from/ knotsBaromVisibWave heightAir tempDewpointWater temp
2014-Nov-28 00:33N 59°56' E 026°16'44 2.6
2014-Nov-27 07:33N 59°46' E 024°51'5 5.4
2014-Nov-27 06:33N 59°45' E 024°40'5 5.4
2014-Nov-27 05:33N 59°44' E 024°30'5 5.4
2014-Nov-27 04:34N 59°43' E 024°19'5 5.2
2014-Nov-27 03:33N 59°41' E 024°09'5 5.3
2014-Nov-27 02:33N 59°40' E 023°59'5 5.4
2014-Nov-27 01:33N 59°38' E 023°49'6 5.6
2014-Nov-27 00:33N 59°36' E 023°39'6 5.6
2014-Nov-26 23:31N 59°35' E 023°27'  
2014-Nov-24 05:33N 55°37' E 015°34'6 6.4
2014-Nov-24 04:33N 55°35' E 015°23'7 6.8
2014-Nov-24 03:32N 55°32' E 015°12'7 6.9
2014-Nov-24 02:32N 55°29' E 015°01'7 7.1
2014-Nov-24 01:33N 55°27' E 014°50'8 7.7
2014-Nov-24 00:33N 55°23' E 014°38'8 8.4
2014-Nov-23 23:34N 55°16' E 014°29'8 7.9
2014-Nov-23 22:33N 55°10' E 014°19'8 8.1
2014-Nov-23 21:33N 55°10' E 014°05'34 6.3
2014-Nov-23 16:12N 55°13' E 013°06'4 6.2
2014-Nov-23 15:33N 55°13' E 012°59'6 5.8
2014-Nov-23 14:33N 55°15' E 012°50'6 5.5
2014-Nov-23 13:33N 55°17' E 012°41'5 4.6
2014-Nov-23 12:33N 55°22' E 012°38'6 6.0
2014-Nov-23 11:33N 55°28' E 012°41'7 7.1
2014-Nov-23 10:33N 55°33' E 012°48'8 8.1
2014-Nov-23 09:34N 55°40' E 012°56'1110.9
2014-Nov-23 08:33N 55°50' E 012°46'1211.6
2014-Nov-23 07:33N 56°01' E 012°40'9 8.7
2014-Nov-23 06:33N 56°08' E 012°30'5 5.2
2014-Nov-23 05:33N 56°10' E 012°23'6 5.8
2014-Nov-23 04:33N 56°13' E 012°14'5 5.3
2014-Nov-23 03:33N 56°16' E 012°06'5 5.5
2014-Nov-23 02:33N 56°21' E 012°01'57 6.2
2014-Nov-22 17:25N 57°16' E 011°32'5 4.6
2014-Nov-22 16:22N 57°20' E 011°29'3 4.0
2014-Nov-22 15:33N 57°23' E 011°27'7 7.3
2014-Nov-22 14:33N 57°29' E 011°20'8 7.6
2014-Nov-22 13:33N 57°35' E 011°09'7 7.1
2014-Nov-22 12:33N 57°39' E 010°60'7 7.2
2014-Nov-22 11:32N 57°44' E 010°50'6 6.1
2014-Nov-22 10:33N 57°47' E 010°40'7 6.5
2014-Nov-22 09:27N 57°48' E 010°27'272 6.5
2014-Nov-20 15:30N 54°19' E 005°15'8 8.6
2014-Nov-20 14:33N 54°14' E 005°03'8 8.3
2014-Nov-20 13:33N 54°08' E 004°54'8 8.1
2014-Nov-20 12:33N 54°01' E 004°45'  

Dump ship's entire track history